Time;durP1;ratioP1;P1;durP2;ratioP2;P2;SDS_P1;SDS_P2;PMS_P1;PMS_P2;Temp;Humidity;BMP_temperature;BMP_pressure;BME280_temperature;BME280_humidity;BME280_pressure;Samples;Min_cycle;Max_cycle;Signal;HPM_P1;HPM_P2
2021/06/21 00:01:47;;;;;;;8.32;4.05;;;20.10;99.90;;;;;;5064955;28;20024;-75
2021/06/21 00:04:15;;;;;;;10.82;5.47;;;20.20;99.90;;;;;;5063827;28;20450;-74
2021/06/21 00:06:41;;;;;;;10.27;7.93;;;20.10;99.90;;;;;;5065302;28;20036;-76
2021/06/21 00:09:08;;;;;;;11.77;9.32;;;20.10;99.90;;;;;;5061742;28;20195;-74
2021/06/21 00:11:34;;;;;;;15.55;13.95;;;20.10;99.90;;;;;;5040862;28;20029;-75
2021/06/21 00:13:59;;;;;;;13.57;11.75;;;20.00;99.90;;;;;;5059655;28;20060;-76
2021/06/21 00:16:28;;;;;;;16.88;13.50;;;20.00;99.90;;;;;;5062421;28;20036;-75
2021/06/21 00:18:53;;;;;;;14.35;12.18;;;20.00;99.90;;;;;;5065893;28;20461;-76
2021/06/21 00:21:20;;;;;;;12.48;10.27;;;20.00;99.90;;;;;;5064375;28;20040;-76
2021/06/21 00:23:47;;;;;;;13.25;10.32;;;20.10;99.90;;;;;;5062844;28;20229;-77
2021/06/21 00:26:13;;;;;;;12.05;9.63;;;20.10;99.90;;;;;;5057773;28;20121;-76
2021/06/21 00:28:39;;;;;;;11.43;9.30;;;20.10;99.90;;;;;;5064803;28;20438;-76
2021/06/21 00:31:04;;;;;;;13.77;9.90;;;20.10;99.90;;;;;;5062631;28;20911;-75
2021/06/21 00:33:32;;;;;;;14.02;10.40;;;20.10;99.90;;;;;;5057819;28;20039;-77
2021/06/21 00:36:00;;;;;;;12.48;9.45;;;20.00;99.90;;;;;;5058653;28;20021;-75
2021/06/21 00:38:25;;;;;;;10.82;7.28;;;19.90;99.90;;;;;;5057322;28;20119;-76
2021/06/21 00:40:56;;;;;;;10.90;7.68;;;19.90;99.90;;;;;;5057682;28;20101;-76
2021/06/21 00:43:21;;;;;;;13.07;8.23;;;19.90;99.90;;;;;;5064289;28;20032;-76
2021/06/21 00:45:48;;;;;;;13.43;9.38;;;20.00;99.90;;;;;;5065242;28;20357;-77
2021/06/21 00:48:13;;;;;;;13.57;9.10;;;20.00;99.90;;;;;;5074595;28;20044;-76
2021/06/21 00:50:39;;;;;;;17.77;12.57;;;20.00;99.90;;;;;;5057971;28;20033;-74
2021/06/21 00:53:05;;;;;;;15.13;12.18;;;19.90;99.90;;;;;;5056911;28;20618;-75
2021/06/21 00:55:31;;;;;;;20.50;15.10;;;19.90;99.90;;;;;;5059795;28;20029;-75
2021/06/21 00:57:56;;;;;;;16.55;12.40;;;19.90;99.90;;;;;;5062480;28;20033;-76
2021/06/21 01:00:25;;;;;;;21.35;14.75;;;19.90;99.90;;;;;;5058987;28;20049;-75
2021/06/21 01:02:51;;;;;;;19.23;13.82;;;19.80;99.90;;;;;;5057424;28;20034;-75
2021/06/21 01:05:23;;;;;;;18.23;12.70;;;19.90;99.90;;;;;;5058051;28;20028;-77
2021/06/21 01:07:48;;;;;;;;;;;19.90;99.90;;;;;;5062478;28;20079;-75
2021/06/21 01:10:17;;;;;;;20.75;15.38;;;19.70;99.90;;;;;;5053859;28;19924;-77
2021/06/21 01:12:46;;;;;;;23.42;13.75;;;19.70;99.90;;;;;;5053220;28;20024;-76
2021/06/21 01:15:29;;;;;;;19.38;13.45;;;19.70;99.90;;;;;;5056998;28;20024;-76
2021/06/21 01:18:04;;;;;;;20.98;14.25;;;19.70;99.90;;;;;;5054847;28;20025;-76
2021/06/21 01:20:50;;;;;;;20.10;13.45;;;19.60;99.90;;;;;;5056155;28;20128;-75
2021/06/21 01:23:46;;;;;;;25.40;15.20;;;19.70;99.90;;;;;;5057143;28;20115;-76
2021/06/21 01:26:17;;;;;;;19.83;13.07;;;19.70;99.90;;;;;;5057695;28;21932;-76
2021/06/21 01:29:21;;;;;;;19.88;12.38;;;19.70;99.90;;;;;;5040153;28;20050;-75
2021/06/21 01:32:08;;;;;;;23.73;14.80;;;19.70;99.90;;;;;;5057241;28;20498;-76
2021/06/21 01:34:37;;;;;;;21.00;13.70;;;19.60;99.90;;;;;;5058382;28;20032;-76
2021/06/21 01:37:03;;;;;;;16.70;11.73;;;19.50;99.90;;;;;;5054763;28;20518;-76
2021/06/21 01:39:32;;;;;;;21.38;13.95;;;19.50;99.90;;;;;;5038575;28;20044;-75
2021/06/21 01:42:03;;;;;;;19.35;11.82;;;19.50;99.90;;;;;;5055993;28;20021;-75
2021/06/21 01:44:30;;;;;;;16.27;10.32;;;19.50;99.90;;;;;;5051976;28;20115;-76
2021/06/21 01:46:58;;;;;;;15.90;9.63;;;19.50;99.90;;;;;;5057613;28;20028;-76
2021/06/21 01:49:29;;;;;;;13.90;7.97;;;19.50;99.90;;;;;;5055311;28;20473;-75
2021/06/21 01:51:55;;;;;;;15.10;8.00;;;19.50;99.90;;;;;;5058907;28;20115;-74
2021/06/21 01:54:26;;;;;;;12.75;7.63;;;19.40;99.90;;;;;;5060817;28;20028;-74
2021/06/21 01:56:58;;;;;;;18.77;8.52;;;19.40;99.90;;;;;;5060714;28;20679;-75
2021/06/21 01:59:27;;;;;;;13.77;7.72;;;19.40;99.90;;;;;;5044686;28;20020;-76
2021/06/21 02:01:56;;;;;;;14.23;8.25;;;19.40;99.90;;;;;;5050085;28;20031;-76
2021/06/21 02:04:22;;;;;;;12.18;6.78;;;19.20;99.90;;;;;;5055404;28;20194;-75
2021/06/21 02:06:50;;;;;;;11.90;6.55;;;19.30;99.90;;;;;;5055658;28;20462;-74
2021/06/21 02:09:22;;;;;;;13.35;7.68;;;19.20;99.90;;;;;;5056149;28;20033;-75
2021/06/21 02:11:48;;;;;;;15.32;9.88;;;19.20;99.90;;;;;;5052988;28;20029;-75
2021/06/21 02:14:16;;;;;;;19.83;11.63;;;19.10;99.90;;;;;;5038447;28;20467;-76
2021/06/21 02:16:42;;;;;;;19.25;12.93;;;18.90;99.90;;;;;;5054109;28;20044;-74
2021/06/21 02:19:08;;;;;;;22.00;12.80;;;18.80;99.90;;;;;;5056142;28;20028;-76
2021/06/21 02:21:36;;;;;;;17.52;11.32;;;18.90;99.90;;;;;;5072884;28;20024;-75
2021/06/21 02:24:01;;;;;;;18.75;12.55;;;18.90;99.90;;;;;;5042265;28;20124;-74
2021/06/21 02:26:27;;;;;;;18.33;12.75;;;18.90;99.90;;;;;;5054603;28;20020;-74
2021/06/21 02:28:53;;;;;;;17.17;11.05;;;18.90;99.90;;;;;;5059065;28;20028;-76
2021/06/21 02:31:20;;;;;;;17.77;12.20;;;18.80;99.90;;;;;;5061354;28;20047;-76
2021/06/21 02:33:45;;;;;;;17.95;11.80;;;18.80;99.90;;;;;;5057974;28;20028;-76
2021/06/21 02:36:11;;;;;;;19.42;13.27;;;18.80;99.90;;;;;;5059041;28;20472;-73
2021/06/21 02:38:36;;;;;;;19.17;14.18;;;18.70;99.90;;;;;;5058332;28;20029;-75
2021/06/21 02:41:02;;;;;;;20.90;13.75;;;18.60;99.90;;;;;;5056449;28;20101;-76
2021/06/21 02:43:30;;;;;;;24.98;12.45;;;18.70;99.90;;;;;;5056362;28;20166;-76
2021/06/21 02:45:58;;;;;;;21.50;13.73;;;18.70;99.90;;;;;;5054876;28;20124;-75
2021/06/21 02:48:26;;;;;;;19.38;13.05;;;18.60;99.90;;;;;;5059275;28;20036;-76
2021/06/21 02:50:53;;;;;;;17.88;14.07;;;18.60;99.90;;;;;;5053354;28;20029;-76
2021/06/21 02:53:41;;;;;;;20.88;13.63;;;18.50;99.90;;;;;;5038881;28;20523;-76
2021/06/21 02:56:18;;;;;;;18.45;11.65;;;18.50;99.90;;;;;;5055587;28;20397;-75
2021/06/21 02:58:44;;;;;;;18.75;12.95;;;18.50;99.90;;;;;;5041645;28;20814;-76
2021/06/21 03:01:13;;;;;;;26.75;12.13;;;18.50;99.90;;;;;;5051176;28;20028;-76
2021/06/21 03:03:44;;;;;;;19.83;12.30;;;18.50;99.90;;;;;;5057008;28;20485;-76
2021/06/21 03:06:11;;;;;;;18.38;11.13;;;18.40;99.90;;;;;;5070667;28;20028;-75
2021/06/21 03:08:37;;;;;;;20.15;12.40;;;18.30;99.90;;;;;;5054415;28;20028;-77
2021/06/21 03:11:03;;;;;;;18.98;12.40;;;18.40;99.90;;;;;;5056434;28;20039;-76
2021/06/21 03:13:28;;;;;;;18.08;11.75;;;18.30;99.90;;;;;;5052433;28;20031;-77
2021/06/21 03:15:55;;;;;;;19.33;13.52;;;18.30;99.90;;;;;;5039955;28;20124;-74
2021/06/21 03:18:21;;;;;;;18.55;12.75;;;18.30;99.90;;;;;;5052060;28;20037;-76
2021/06/21 03:20:59;;;;;;;18.58;13.65;;;18.30;99.90;;;;;;5055692;28;20052;-74
2021/06/21 03:23:26;;;;;;;19.35;12.48;;;18.30;99.90;;;;;;5064325;28;20546;-76
2021/06/21 03:25:55;;;;;;;15.10;10.48;;;18.20;99.90;;;;;;5066247;28;20119;-76
2021/06/21 03:28:21;;;;;;;15.48;10.85;;;18.30;99.90;;;;;;5061767;28;20114;-76
2021/06/21 03:30:56;;;;;;;18.35;12.57;;;18.40;99.90;;;;;;5064529;28;20025;-77
2021/06/21 03:33:22;;;;;;;21.15;12.80;;;18.30;99.90;;;;;;5062357;28;20109;-76
2021/06/21 03:35:50;;;;;;;20.58;13.43;;;18.20;99.90;;;;;;5060041;28;20607;-75
2021/06/21 03:38:22;;;;;;;21.40;12.80;;;18.20;99.90;;;;;;5054557;28;20040;-76
2021/06/21 03:40:51;;;;;;;21.48;13.65;;;18.20;99.90;;;;;;5059654;28;20666;-77
2021/06/21 03:43:18;;;;;;;17.95;12.07;;;18.30;99.90;;;;;;5045483;28;20095;-76
2021/06/21 03:45:49;;;;;;;22.27;12.50;;;18.30;99.90;;;;;;5055656;28;20041;-77
2021/06/21 03:48:15;;;;;;;17.42;11.15;;;18.30;99.90;;;;;;5058929;28;20120;-75
2021/06/21 03:50:41;;;;;;;16.48;11.13;;;18.30;99.90;;;;;;5056143;28;20415;-75
2021/06/21 03:53:09;;;;;;;25.00;12.07;;;18.30;99.90;;;;;;5058759;28;20036;-75
2021/06/21 03:55:34;;;;;;;20.83;11.88;;;18.30;99.90;;;;;;5042362;28;20028;-76
2021/06/21 03:58:03;;;;;;;16.08;11.45;;;18.30;99.90;;;;;;5059085;28;20032;-77
2021/06/21 04:00:29;;;;;;;24.88;13.48;;;18.30;99.90;;;;;;5059115;28;20087;-78
2021/06/21 04:02:58;;;;;;;15.85;11.80;;;18.30;99.90;;;;;;5058768;28;20512;-76
2021/06/21 04:05:24;;;;;;;19.33;13.05;;;18.30;99.90;;;;;;5055809;28;20120;-76
2021/06/21 04:07:50;;;;;;;18.10;12.38;;;18.40;99.90;;;;;;5056532;28;20408;-76
2021/06/21 04:10:25;;;;;;;16.63;11.50;;;18.30;99.90;;;;;;5057536;28;20025;-76
2021/06/21 04:12:58;;;;;;;20.02;12.57;;;18.40;99.90;;;;;;5054121;28;20468;-76
2021/06/21 04:15:30;;;;;;;28.42;13.20;;;18.40;99.90;;;;;;5057850;28;20049;-78
2021/06/21 04:17:59;;;;;;;15.57;8.65;;;18.40;99.90;;;;;;5057641;28;20033;-76
2021/06/21 04:20:25;;;;;;;16.85;9.60;;;18.40;99.90;;;;;;5058291;28;20033;-76
2021/06/21 04:22:53;;;;;;;16.75;8.82;;;18.50;99.90;;;;;;5053342;28;20102;-77
2021/06/21 04:25:21;;;;;;;14.20;8.93;;;18.40;99.90;;;;;;5058619;28;20045;-76
2021/06/21 04:27:49;;;;;;;14.65;7.57;;;18.40;99.90;;;;;;5045449;28;20036;-76
2021/06/21 04:30:17;;;;;;;17.08;9.95;;;18.30;99.90;;;;;;5065881;28;20051;-75
2021/06/21 04:32:45;;;;;;;21.98;7.47;;;18.30;99.90;;;;;;5058656;28;20024;-75
2021/06/21 04:35:15;;;;;;;16.80;8.63;;;18.30;99.90;;;;;;5055295;28;20110;-77
2021/06/21 04:37:42;;;;;;;14.13;7.75;;;18.20;99.90;;;;;;5057525;28;20021;-75
2021/06/21 04:40:10;;;;;;;23.33;8.18;;;18.30;99.90;;;;;;5058687;28;20040;-76
2021/06/21 04:42:35;;;;;;;16.98;9.02;;;18.20;99.90;;;;;;5062305;28;20025;-77
2021/06/21 04:45:02;;;;;;;16.92;8.80;;;18.20;99.90;;;;;;5069037;28;20107;-75
2021/06/21 04:47:28;;;;;;;19.02;9.77;;;18.20;99.90;;;;;;5039078;28;20028;-77
2021/06/21 04:49:54;;;;;;;21.02;8.93;;;18.20;99.90;;;;;;5057733;28;20468;-77
2021/06/21 04:52:28;;;;;;;14.88;8.35;;;18.20;99.90;;;;;;5058387;28;20039;-77
2021/06/21 04:55:01;;;;;;;15.13;8.85;;;18.20;99.90;;;;;;5059155;28;20404;-76
2021/06/21 04:57:27;;;;;;;17.73;10.25;;;18.20;99.90;;;;;;5059186;28;20213;-76
2021/06/21 04:59:52;;;;;;;15.70;9.18;;;18.20;99.90;;;;;;5058857;28;20034;-76
2021/06/21 05:02:20;;;;;;;16.55;8.18;;;18.20;99.90;;;;;;5060534;28;20537;-77
2021/06/21 05:04:46;;;;;;;16.00;8.00;;;18.30;99.90;;;;;;5058344;28;20037;-78
2021/06/21 05:07:13;;;;;;;21.08;8.32;;;18.20;99.90;;;;;;5056629;28;20042;-75
2021/06/21 05:09:39;;;;;;;18.45;9.05;;;18.30;99.90;;;;;;5059156;28;20044;-78
2021/06/21 05:12:05;;;;;;;15.40;8.70;;;18.30;99.90;;;;;;5063610;28;20055;-77
2021/06/21 05:14:31;;;;;;;12.80;7.22;;;18.30;99.90;;;;;;5064557;28;20040;-77
2021/06/21 05:16:56;;;;;;;16.02;7.25;;;18.20;99.90;;;;;;5061249;28;20029;-77
2021/06/21 05:19:24;;;;;;;13.65;7.05;;;18.20;99.90;;;;;;5053092;28;20127;-74
2021/06/21 05:21:50;;;;;;;15.32;6.15;;;18.10;99.90;;;;;;5057021;28;20050;-79
2021/06/21 05:24:15;;;;;;;13.80;6.78;;;18.20;99.90;;;;;;5058071;28;20056;-77
2021/06/21 05:26:43;;;;;;;15.55;6.18;;;18.20;99.90;;;;;;5063164;28;21946;-77
2021/06/21 05:29:13;;;;;;;12.73;5.70;;;18.10;99.90;;;;;;5060874;28;20032;-77
2021/06/21 05:31:40;;;;;;;11.38;4.97;;;18.30;99.90;;;;;;5057680;28;20535;-79
2021/06/21 05:34:06;;;;;;;12.35;4.65;;;18.30;99.90;;;;;;5072623;28;20033;-76
2021/06/21 05:36:34;;;;;;;16.08;5.47;;;18.30;99.90;;;;;;5056075;28;20073;-77
2021/06/21 05:39:04;;;;;;;12.10;4.55;;;18.40;99.90;;;;;;5056571;28;20036;-77
2021/06/21 05:41:30;;;;;;;10.68;4.35;;;18.30;99.90;;;;;;5056735;28;20123;-77
2021/06/21 05:43:55;;;;;;;9.32;3.70;;;18.30;99.90;;;;;;5057142;28;20039;-77
2021/06/21 05:46:26;;;;;;;14.65;4.53;;;18.40;99.90;;;;;;5056998;28;20069;-76
2021/06/21 05:48:52;;;;;;;12.40;3.70;;;18.40;99.90;;;;;;5055592;28;20040;-76
2021/06/21 05:51:20;;;;;;;11.13;4.30;;;18.50;99.90;;;;;;5060088;28;20591;-79
2021/06/21 05:53:47;;;;;;;11.55;4.55;;;18.50;99.90;;;;;;5066280;28;20040;-79
2021/06/21 05:56:14;;;;;;;9.07;3.97;;;18.60;99.90;;;;;;5061989;28;20039;-77
2021/06/21 05:58:42;;;;;;;9.80;4.05;;;18.70;99.90;;;;;;5056994;28;20028;-77
2021/06/21 06:01:08;;;;;;;10.25;3.78;;;18.70;99.90;;;;;;5053007;28;20071;-80
2021/06/21 06:03:35;;;;;;;11.23;3.72;;;18.70;99.90;;;;;;5055064;28;20124;-76
2021/06/21 06:06:03;;;;;;;8.18;3.33;;;18.80;99.90;;;;;;5052610;28;20056;-80
2021/06/21 06:08:31;;;;;;;11.18;3.47;;;18.80;99.90;;;;;;5055676;28;20879;-76
2021/06/21 06:10:57;;;;;;;10.27;3.47;;;18.90;99.90;;;;;;5055170;28;20032;-78
2021/06/21 06:13:22;;;;;;;7.13;3.35;;;18.90;99.90;;;;;;5057031;28;20029;-75
2021/06/21 06:15:50;;;;;;;11.35;3.50;;;18.90;99.90;;;;;;5056162;28;20033;-77
2021/06/21 06:18:16;;;;;;;8.80;3.50;;;19.00;99.90;;;;;;5057001;28;20044;-73
2021/06/21 06:20:44;;;;;;;11.82;4.70;;;19.00;99.90;;;;;;5059873;28;20472;-73
2021/06/21 06:23:09;;;;;;;8.18;3.47;;;19.10;99.90;;;;;;5061006;28;20090;-70
2021/06/21 06:25:38;;;;;;;13.13;3.65;;;19.10;99.90;;;;;;5062003;28;20033;-78
2021/06/21 06:28:06;;;;;;;10.88;4.10;;;19.10;99.90;;;;;;5031815;28;20064;-76
2021/06/21 06:30:32;;;;;;;8.88;3.55;;;19.10;99.90;;;;;;5057082;28;20036;-78
2021/06/21 06:33:00;;;;;;;8.15;3.38;;;19.10;99.90;;;;;;5060142;28;20025;-77
2021/06/21 06:35:26;;;;;;;10.52;4.00;;;19.00;99.90;;;;;;5060812;28;20039;-76
2021/06/21 06:37:53;;;;;;;9.27;3.22;;;19.10;99.90;;;;;;5058914;28;20603;-77
2021/06/21 06:40:19;;;;;;;9.32;3.97;;;19.10;99.90;;;;;;5060183;28;20419;-77
2021/06/21 06:42:52;;;;;;;10.02;3.80;;;19.10;99.90;;;;;;5060434;28;20024;-73
2021/06/21 06:45:18;;;;;;;10.35;5.95;;;19.10;99.90;;;;;;5058535;28;20123;-72
2021/06/21 06:47:43;;;;;;;10.13;4.32;;;19.20;99.90;;;;;;5058455;28;20731;-76
2021/06/21 06:50:09;;;;;;;7.60;3.35;;;19.20;99.90;;;;;;5059472;28;20035;-76
2021/06/21 06:52:35;;;;;;;6.78;3.33;;;19.20;99.90;;;;;;5061720;28;20039;-78
2021/06/21 06:57:36;;;;;;;10.38;3.50;;;19.20;99.90;;;;;;5060875;28;20052;-79
2021/06/21 07:00:04;;;;;;;6.50;3.13;;;19.20;99.90;;;;;;5049489;28;20040;-78
2021/06/21 07:02:31;;;;;;;11.15;3.53;;;19.20;99.90;;;;;;5061567;28;20119;-79
2021/06/21 07:05:03;;;;;;;9.95;3.67;;;19.30;99.90;;;;;;5062627;28;20512;-77
2021/06/21 07:07:28;;;;;;;9.82;3.35;;;19.20;99.90;;;;;;5046634;28;20601;-75
2021/06/21 07:09:54;;;;;;;9.23;3.30;;;19.20;99.90;;;;;;5063929;28;20078;-78
2021/06/21 07:12:20;;;;;;;8.98;3.42;;;19.20;99.90;;;;;;5063644;28;20032;-78
2021/06/21 07:14:47;;;;;;;10.27;5.90;;;19.30;99.90;;;;;;5062046;28;20024;-79
2021/06/21 07:17:13;;;;;;;10.57;3.45;;;19.20;99.90;;;;;;5062861;28;20029;-77
2021/06/21 07:19:40;;;;;;;10.25;3.92;;;19.30;99.90;;;;;;5064337;28;20047;-77
2021/06/21 07:22:07;;;;;;;8.27;3.58;;;19.20;99.90;;;;;;5049753;28;20047;-76
2021/06/21 07:24:34;;;;;;;11.90;3.47;;;19.30;99.90;;;;;;5062026;28;20648;-77
2021/06/21 07:26:59;;;;;;;9.43;4.00;;;19.30;99.90;;;;;;5061439;28;20029;-77
2021/06/21 07:29:25;;;;;;;7.47;3.10;;;19.30;99.90;;;;;;5064320;28;20037;-77
2021/06/21 07:31:50;;;;;;;8.48;3.58;;;19.30;99.90;;;;;;5062762;28;21133;-77
2021/06/21 07:34:19;;;;;;;9.68;4.03;;;19.30;99.90;;;;;;5065520;28;20103;-76
2021/06/21 07:36:44;;;;;;;12.85;3.70;;;19.30;99.90;;;;;;5064246;28;20469;-76
2021/06/21 07:39:10;;;;;;;10.20;3.40;;;19.30;99.90;;;;;;5062573;28;20353;-77
2021/06/21 07:41:38;;;;;;;8.35;3.45;;;19.40;99.90;;;;;;5063128;28;20217;-77
2021/06/21 07:44:06;;;;;;;9.40;3.72;;;19.40;99.90;;;;;;5061893;28;20480;-77
2021/06/21 07:46:32;;;;;;;10.13;3.88;;;19.50;99.90;;;;;;5064095;28;20052;-77
2021/06/21 07:48:58;;;;;;;7.47;3.53;;;19.60;99.90;;;;;;5062161;28;20016;-76
2021/06/21 07:51:24;;;;;;;7.55;3.15;;;19.60;99.90;;;;;;5064986;28;20039;-78
2021/06/21 07:53:54;;;;;;;5.63;3.10;;;19.60;99.90;;;;;;5064479;28;20035;-76
2021/06/21 07:56:21;;;;;;;7.75;3.90;;;19.70;99.90;;;;;;5060762;28;20028;-77
2021/06/21 07:58:47;;;;;;;10.75;5.10;;;19.70;99.90;;;;;;5063198;28;20048;-74
2021/06/21 08:01:13;;;;;;;6.75;3.22;;;19.70;99.90;;;;;;5062254;28;20425;-72
2021/06/21 08:03:42;;;;;;;8.00;2.72;;;19.60;99.90;;;;;;5063715;28;20195;-77
2021/06/21 08:06:11;;;;;;;7.30;2.67;;;19.60;99.90;;;;;;5060767;28;20551;-75
2021/06/21 08:08:42;;;;;;;5.68;2.65;;;19.60;99.90;;;;;;5062812;28;20036;-76
2021/06/21 08:11:09;;;;;;;7.97;3.00;;;19.50;99.90;;;;;;5061524;28;20388;-76
2021/06/21 08:13:37;;;;;;;8.00;3.00;;;19.70;99.90;;;;;;5063100;28;20032;-76
2021/06/21 08:16:08;;;;;;;7.05;2.40;;;19.90;99.90;;;;;;5062368;28;20030;-74
2021/06/21 08:18:34;;;;;;;6.45;2.70;;;19.90;99.90;;;;;;5062277;28;20056;-77
2021/06/21 08:20:59;;;;;;;5.65;2.40;;;19.80;99.90;;;;;;5048123;28;20829;-75
2021/06/21 08:23:25;;;;;;;7.38;3.28;;;19.90;99.90;;;;;;5067472;28;20029;-76
2021/06/21 08:25:53;;;;;;;9.52;4.05;;;20.00;99.90;;;;;;5063928;28;20112;-75
2021/06/21 08:28:19;;;;;;;7.35;3.13;;;20.10;99.90;;;;;;5062333;28;20049;-76
2021/06/21 08:30:46;;;;;;;7.75;2.92;;;20.20;99.90;;;;;;5061872;28;20032;-77
2021/06/21 08:33:11;;;;;;;7.88;2.60;;;20.30;99.90;;;;;;5061075;28;20078;-75
2021/06/21 08:35:37;;;;;;;8.07;2.92;;;20.40;99.90;;;;;;5062270;28;20025;-76
2021/06/21 08:38:05;;;;;;;9.50;2.75;;;20.50;99.90;;;;;;5063286;28;20098;-73
2021/06/21 08:40:34;;;;;;;7.30;3.25;;;20.60;99.90;;;;;;5062554;28;20039;-72
2021/06/21 08:43:00;;;;;;;6.32;2.80;;;20.60;99.90;;;;;;5063849;28;20017;-72
2021/06/21 08:45:27;;;;;;;7.53;2.80;;;20.60;99.90;;;;;;5058364;28;20044;-76
2021/06/21 08:47:52;;;;;;;5.88;2.80;;;20.80;99.90;;;;;;5060121;28;20071;-74
2021/06/21 08:50:18;;;;;;;7.70;2.85;;;20.70;99.90;;;;;;5047067;28;20123;-76
2021/06/21 08:52:44;;;;;;;6.15;2.40;;;20.60;99.90;;;;;;5059577;28;20024;-75
2021/06/21 08:55:10;;;;;;;6.68;2.70;;;20.60;99.90;;;;;;5080413;28;20048;-75
2021/06/21 08:57:42;;;;;;;5.85;2.40;;;20.50;99.90;;;;;;5060042;28;20016;-76
2021/06/21 09:00:08;;;;;;;;;;;20.50;99.90;;;;;;5061144;28;20039;-75
2021/06/21 09:02:34;;;;;;;6.28;2.63;;;20.50;99.90;;;;;;5057816;28;19940;-76
2021/06/21 09:05:05;;;;;;;7.45;2.75;;;20.30;99.90;;;;;;5061436;28;20158;-78
2021/06/21 09:07:30;;;;;;;5.38;2.80;;;20.30;99.90;;;;;;5063827;28;20035;-77
2021/06/21 09:09:58;;;;;;;7.40;2.90;;;20.20;99.90;;;;;;5062396;28;20033;-75
2021/06/21 09:12:30;;;;;;;5.65;2.60;;;20.20;99.90;;;;;;5064275;28;20024;-77
2021/06/21 09:14:59;;;;;;;7.68;3.20;;;20.20;99.90;;;;;;5063535;28;20501;-76
2021/06/21 09:17:29;;;;;;;7.63;2.80;;;20.30;99.90;;;;;;5059128;28;20036;-76
2021/06/21 09:20:00;;;;;;;6.63;2.95;;;20.40;99.90;;;;;;5061327;28;20112;-76
2021/06/21 09:22:32;;;;;;;8.30;3.13;;;20.60;99.90;;;;;;5046996;28;20399;-77
2021/06/21 09:25:08;;;;;;;6.35;3.00;;;20.60;99.90;;;;;;5058759;28;20044;-74
2021/06/21 09:27:34;;;;;;;6.88;3.20;;;20.70;99.90;;;;;;5048154;28;20031;-77
2021/06/21 09:30:08;;;;;;;6.30;3.08;;;20.80;99.90;;;;;;5059770;28;20366;-78
2021/06/21 09:32:52;;;;;;;5.50;3.03;;;20.90;99.90;;;;;;5066055;28;20020;-78
2021/06/21 09:35:32;;;;;;;5.50;2.70;;;21.10;99.90;;;;;;5063116;28;20036;-76
2021/06/21 09:38:12;;;;;;;9.63;2.70;;;21.10;99.90;;;;;;5066156;28;20027;-77
2021/06/21 09:40:40;;;;;;;7.32;3.40;;;21.10;99.90;;;;;;5064844;28;20094;-76
2021/06/21 09:43:23;;;;;;;11.50;6.13;;;21.30;99.90;;;;;;5059853;28;20025;-77
2021/06/21 09:46:10;;;;;;;8.15;3.70;;;21.20;99.90;;;;;;5063815;28;20107;-78
2021/06/21 09:48:42;;;;;;;7.20;3.75;;;21.20;99.90;;;;;;5061729;28;20032;-76
2021/06/21 09:51:32;;;;;;;8.48;4.00;;;21.40;99.90;;;;;;5060528;28;20036;-75
2021/06/21 09:54:11;;;;;;;7.38;3.05;;;21.30;99.90;;;;;;5061071;28;20020;-76
2021/06/21 09:57:15;;;;;;;8.45;3.60;;;21.30;99.90;;;;;;5061983;28;20028;-76
2021/06/21 09:59:48;;;;;;;7.70;3.70;;;21.30;99.90;;;;;;5059019;28;20040;-75
2021/06/21 10:02:18;;;;;;;7.47;4.20;;;21.40;99.90;;;;;;5047198;28;20376;-76
2021/06/21 10:04:48;;;;;;;10.70;4.13;;;21.30;99.90;;;;;;5061837;28;20021;-76
2021/06/21 10:07:33;;;;;;;8.55;3.78;;;21.20;99.90;;;;;;5062620;28;20035;-76
2021/06/21 10:10:07;;;;;;;7.57;3.80;;;21.40;99.90;;;;;;5056037;28;20048;-76
2021/06/21 10:12:35;;;;;;;7.20;3.67;;;21.40;99.90;;;;;;5062531;28;20020;-76
2021/06/21 10:15:01;;;;;;;6.57;3.58;;;21.40;99.90;;;;;;5059409;28;20086;-78
2021/06/21 10:17:32;;;;;;;7.57;3.78;;;21.40;99.90;;;;;;5057336;28;20030;-72
2021/06/21 10:19:57;;;;;;;10.80;7.28;;;21.50;99.90;;;;;;5062691;28;20505;-71
2021/06/21 10:22:27;;;;;;;8.80;5.22;;;21.60;99.90;;;;;;5060864;28;20039;-73
2021/06/21 10:24:55;;;;;;;6.80;3.63;;;21.80;99.90;;;;;;5062882;28;20045;-77
2021/06/21 10:27:20;;;;;;;8.73;3.47;;;21.80;99.90;;;;;;5060642;28;20052;-76
2021/06/21 10:29:49;;;;;;;7.57;3.30;;;21.80;99.90;;;;;;5062295;28;20079;-77
2021/06/21 10:32:15;;;;;;;5.85;2.65;;;21.90;99.90;;;;;;5048596;28;20092;-78
2021/06/21 10:34:40;;;;;;;6.70;3.20;;;22.00;99.90;;;;;;5046056;28;20029;-78
2021/06/21 10:37:18;;;;;;;7.60;3.15;;;22.00;99.90;;;;;;5078683;28;20603;-77
2021/06/21 10:39:47;;;;;;;8.93;5.50;;;22.00;99.90;;;;;;5058681;28;20086;-77
2021/06/21 10:42:13;;;;;;;6.72;3.38;;;22.10;99.90;;;;;;5060551;28;20120;-77
2021/06/21 10:44:40;;;;;;;6.60;3.20;;;22.00;99.90;;;;;;5059899;28;20027;-76
2021/06/21 10:47:33;;;;;;;6.32;3.22;;;21.80;99.90;;;;;;5049197;28;20028;-75
2021/06/21 10:50:21;;;;;;;8.05;3.95;;;21.90;99.90;;;;;;5060552;28;20120;-77
2021/06/21 10:52:52;;;;;;;6.30;3.45;;;21.80;99.90;;;;;;5060360;28;20037;-79
2021/06/21 10:57:50;;;;;;;;;;;21.80;99.90;;;;;;5060826;28;20142;-77
2021/06/21 11:00:16;;;;;;;6.88;3.60;;;21.80;99.90;;;;;;5061682;28;19969;-78
2021/06/21 11:02:47;;;;;;;6.82;3.58;;;21.80;99.90;;;;;;5061592;28;20044;-78
2021/06/21 11:05:32;;;;;;;7.10;3.60;;;21.90;99.90;;;;;;5057163;28;20033;-78
2021/06/21 11:08:28;;;;;;;6.47;3.80;;;21.90;99.90;;;;;;5043344;28;20039;-73
2021/06/21 11:10:56;;;;;;;8.50;5.93;;;22.00;99.90;;;;;;5044413;28;20195;-74
2021/06/21 11:13:36;;;;;;;7.15;3.38;;;22.00;99.90;;;;;;5057832;28;20028;-78
2021/06/21 11:16:19;;;;;;;5.97;3.80;;;21.90;99.90;;;;;;5061953;28;20369;-78
2021/06/21 11:19:08;;;;;;;7.80;3.10;;;22.00;99.90;;;;;;5061983;28;20090;-78
2021/06/21 11:21:48;;;;;;;6.20;3.15;;;22.00;99.90;;;;;;5058125;28;20017;-76
2021/06/21 11:24:35;;;;;;;7.20;3.20;;;22.00;99.80;;;;;;5061021;28;20048;-79
2021/06/21 11:27:05;;;;;;;6.32;3.15;;;22.00;99.90;;;;;;5061301;28;20055;-79
2021/06/21 11:29:35;;;;;;;5.55;3.10;;;22.10;99.90;;;;;;5079610;28;20063;-78
2021/06/21 11:32:04;;;;;;;6.78;3.25;;;22.00;99.90;;;;;;5062470;28;20108;-79
2021/06/21 11:34:51;;;;;;;7.65;3.85;;;22.10;99.90;;;;;;5064052;28;20501;-79
2021/06/21 11:37:30;;;;;;;6.63;3.65;;;22.20;99.90;;;;;;5061209;28;20029;-80
2021/06/21 11:40:11;;;;;;;8.73;3.70;;;22.20;99.90;;;;;;5060490;28;20028;-79
2021/06/21 11:42:37;;;;;;;7.38;4.00;;;22.20;98.90;;;;;;5063352;28;20074;-81
2021/06/21 11:45:03;;;;;;;5.75;3.35;;;22.40;99.90;;;;;;5060818;28;20127;-78
2021/06/21 11:47:32;;;;;;;5.53;3.50;;;22.50;99.90;;;;;;5066581;28;20033;-80
2021/06/21 11:50:15;;;;;;;5.50;3.30;;;22.60;99.20;;;;;;5051331;28;20040;-78
2021/06/21 11:52:44;;;;;;;7.40;3.50;;;22.70;96.70;;;;;;5036155;28;20036;-78
2021/06/21 11:55:20;;;;;;;6.63;3.40;;;22.80;99.90;;;;;;5064296;28;20434;-77
2021/06/21 11:57:47;;;;;;;6.20;3.45;;;22.80;97.80;;;;;;5066210;28;20039;-78
2021/06/21 12:00:17;;;;;;;7.47;3.55;;;23.00;99.90;;;;;;5063168;28;20020;-78
2021/06/21 12:02:42;;;;;;;7.85;4.07;;;23.10;99.50;;;;;;5063416;28;20029;-77
2021/06/21 12:05:15;;;;;;;7.15;3.33;;;23.30;99.90;;;;;;5063452;28;21310;-82
2021/06/21 12:07:44;;;;;;;7.50;3.17;;;23.40;91.00;;;;;;5046614;28;20054;-77
2021/06/21 12:10:15;;;;;;;6.15;3.22;;;23.50;95.00;;;;;;5049476;28;20056;-79
2021/06/21 12:12:42;;;;;;;5.75;3.00;;;23.40;90.40;;;;;;5064782;28;20017;-79
2021/06/21 12:15:14;;;;;;;6.72;3.20;;;23.40;85.40;;;;;;5064887;28;20106;-78
2021/06/21 12:17:42;;;;;;;4.60;3.00;;;23.30;92.80;;;;;;5065030;28;20021;-76
2021/06/21 12:20:19;;;;;;;6.30;3.30;;;23.30;92.10;;;;;;5061298;28;20046;-78
2021/06/21 12:22:58;;;;;;;6.38;3.10;;;23.40;91.70;;;;;;5064426;28;20109;-75
2021/06/21 12:25:34;;;;;;;5.72;3.20;;;23.70;99.50;;;;;;5048593;28;20100;-77
2021/06/21 12:28:25;;;;;;;6.90;3.05;;;23.60;99.90;;;;;;5059421;28;20037;-77
2021/06/21 12:30:58;;;;;;;5.20;3.03;;;23.90;93.70;;;;;;5062427;28;20028;-76
2021/06/21 12:33:30;;;;;;;5.97;3.08;;;24.00;97.00;;;;;;5062125;28;20025;-73
2021/06/21 12:36:19;;;;;;;5.85;3.30;;;24.20;94.50;;;;;;5062706;28;20024;-73
2021/06/21 12:38:52;;;;;;;6.68;2.75;;;24.30;86.80;;;;;;5063474;28;20629;-77
2021/06/21 12:41:47;;;;;;;4.82;2.70;;;24.30;91.20;;;;;;5063250;28;20075;-79
2021/06/21 12:44:15;;;;;;;6.10;2.78;;;24.40;88.20;;;;;;5062620;28;20032;-78
2021/06/21 12:46:49;;;;;;;4.82;3.05;;;24.30;88.30;;;;;;5059990;28;20037;-77
2021/06/21 12:49:17;;;;;;;7.10;2.95;;;24.40;87.80;;;;;;5064671;28;20027;-77
2021/06/21 12:51:43;;;;;;;7.35;2.90;;;24.40;90.50;;;;;;5063347;28;20570;-77
2021/06/21 12:54:17;;;;;;;6.43;2.80;;;24.40;91.70;;;;;;5058485;28;20097;-77
2021/06/21 12:56:47;;;;;;;5.55;2.25;;;24.50;92.60;;;;;;5050630;28;20031;-78
2021/06/21 12:59:29;;;;;;;4.43;2.30;;;24.50;91.50;;;;;;5082799;28;20113;-77